createdAt,value
2022-11-30T00:02:00.684Z,41.20
2022-11-30T00:04:29.241Z,44.20
2022-11-30T00:06:56.296Z,45.40
2022-11-30T00:09:23.606Z,42.47
2022-11-30T00:11:50.683Z,44.00
2022-11-30T00:14:19.350Z,38.70
2022-11-30T00:16:46.456Z,41.50
2022-11-30T00:19:14.599Z,39.43
2022-11-30T00:21:43.323Z,41.37
2022-11-30T00:24:10.386Z,44.57
2022-11-30T00:26:37.477Z,42.17
2022-11-30T00:29:05.004Z,46.00
2022-11-30T00:31:32.704Z,40.70
2022-11-30T00:33:59.910Z,44.73
2022-11-30T00:36:27.007Z,42.37
2022-11-30T00:38:56.182Z,43.60
2022-11-30T00:41:23.302Z,39.77
2022-11-30T00:43:50.411Z,44.03
2022-11-30T00:46:17.502Z,41.10
2022-11-30T00:48:44.798Z,46.03
2022-11-30T00:51:12.438Z,44.23
2022-11-30T00:53:39.755Z,45.10
2022-11-30T00:56:08.846Z,42.23
2022-11-30T00:58:35.985Z,42.13
2022-11-30T01:01:03.134Z,43.80
2022-11-30T01:03:30.365Z,43.30
2022-11-30T01:06:01.608Z,43.37
2022-11-30T01:08:28.698Z,41.07
2022-11-30T01:10:55.781Z,46.43
2022-11-30T01:13:25.155Z,43.40
2022-11-30T01:15:52.286Z,46.07
2022-11-30T01:18:19.423Z,41.97
2022-11-30T01:20:46.529Z,41.53
2022-11-30T01:23:13.700Z,42.97
2022-11-30T01:25:40.820Z,40.40
2022-11-30T01:28:09.778Z,39.83
2022-11-30T01:30:38.297Z,41.40
2022-11-30T01:33:05.461Z,46.70
2022-11-30T01:35:32.572Z,43.53
2022-11-30T01:37:59.699Z,46.90
2022-11-30T01:40:26.796Z,49.60
2022-11-30T01:42:53.919Z,43.77
2022-11-30T01:45:21.091Z,47.43
2022-11-30T01:47:51.315Z,44.67
2022-11-30T01:50:20.682Z,44.07
2022-11-30T01:52:49.072Z,43.17
2022-11-30T01:55:18.155Z,44.00
2022-11-30T01:57:48.267Z,41.47
2022-11-30T02:00:15.929Z,42.80
2022-11-30T02:02:48.656Z,39.87
2022-11-30T02:05:17.805Z,41.30
2022-11-30T02:07:45.488Z,43.70
2022-11-30T02:10:16.268Z,44.40
2022-11-30T02:12:52.172Z,48.13
2022-11-30T02:15:21.819Z,46.90
2022-11-30T02:17:51.585Z,49.00
2022-11-30T02:20:33.714Z,48.63
2022-11-30T02:23:10.704Z,46.67
2022-11-30T02:25:40.799Z,47.37
2022-11-30T02:28:14.222Z,52.33
2022-11-30T02:30:44.478Z,53.90
2022-11-30T02:33:13.991Z,53.77
2022-11-30T02:35:42.244Z,54.00
2022-11-30T02:38:09.753Z,68.73
2022-11-30T02:40:36.895Z,56.17
2022-11-30T02:43:05.323Z,81.43
2022-11-30T02:45:36.135Z,61.60
2022-11-30T02:48:08.400Z,67.30
2022-11-30T02:50:38.662Z,71.23
2022-11-30T02:53:05.843Z,66.93
2022-11-30T02:55:32.973Z,86.77
2022-11-30T02:58:00.088Z,70.33
2022-11-30T03:00:27.372Z,93.73
2022-11-30T03:02:54.556Z,78.93
2022-11-30T03:05:23.288Z,66.13
2022-11-30T03:07:50.447Z,82.53
2022-11-30T03:10:17.759Z,61.60
2022-11-30T03:12:44.880Z,61.90
2022-11-30T03:15:12.054Z,59.73
2022-11-30T03:17:39.149Z,58.90
2022-11-30T03:20:06.943Z,55.87
2022-11-30T03:22:35.373Z,57.23
2022-11-30T03:25:02.451Z,54.60
2022-11-30T03:27:29.563Z,54.27
2022-11-30T03:29:56.653Z,54.20
2022-11-30T03:32:23.762Z,55.80
2022-11-30T03:34:50.837Z,51.30
2022-11-30T03:37:18.027Z,51.97
2022-11-30T03:39:46.445Z,57.00
2022-11-30T03:42:13.545Z,53.23
2022-11-30T03:44:40.606Z,52.67
2022-11-30T03:47:07.692Z,46.83
2022-11-30T03:49:34.788Z,47.50
2022-11-30T03:52:01.895Z,46.50
2022-11-30T03:54:28.988Z,45.77
2022-11-30T03:56:57.415Z,44.33
2022-11-30T03:59:24.514Z,43.93
2022-11-30T04:01:51.597Z,44.20
2022-11-30T04:04:18.746Z,41.87
2022-11-30T04:06:45.826Z,44.60
2022-11-30T04:09:12.972Z,52.80
2022-11-30T04:11:40.064Z,58.07
2022-11-30T04:14:08.565Z,59.43
2022-11-30T04:16:35.636Z,54.23
2022-11-30T04:19:02.868Z,59.37
2022-11-30T04:21:30.040Z,62.87
2022-11-30T04:23:57.152Z,59.47
2022-11-30T04:26:24.329Z,59.80
2022-11-30T04:28:51.539Z,58.67
2022-11-30T04:31:19.975Z,59.43
2022-11-30T04:33:47.102Z,61.80
2022-11-30T04:36:17.180Z,65.03
2022-11-30T04:38:44.261Z,68.97
2022-11-30T04:41:11.347Z,61.50
2022-11-30T04:43:38.453Z,63.67
2022-11-30T04:46:06.174Z,62.80
2022-11-30T04:48:34.704Z,63.03
2022-11-30T04:51:02.472Z,63.30
2022-11-30T04:53:29.552Z,60.13
2022-11-30T04:55:56.646Z,61.23
2022-11-30T04:58:23.768Z,53.43
2022-11-30T05:00:51.038Z,58.07
2022-11-30T05:03:18.109Z,58.23
2022-11-30T05:05:46.539Z,47.40
2022-11-30T05:08:13.626Z,43.30
2022-11-30T05:10:40.703Z,40.10
2022-11-30T05:13:07.823Z,36.80
2022-11-30T05:15:34.924Z,33.10
2022-11-30T05:18:02.305Z,30.30
2022-11-30T05:20:29.714Z,29.93
2022-11-30T05:22:58.176Z,33.47
2022-11-30T05:25:25.271Z,32.40
2022-11-30T05:27:52.363Z,30.80
2022-11-30T05:30:19.436Z,30.53
2022-11-30T05:32:46.517Z,30.77
2022-11-30T05:35:13.596Z,31.30
2022-11-30T05:37:40.700Z,30.40
2022-11-30T05:40:09.913Z,28.37
2022-11-30T05:42:36.992Z,28.17
2022-11-30T05:45:04.327Z,31.40
2022-11-30T05:47:31.395Z,27.53
2022-11-30T05:49:58.528Z,25.63
2022-11-30T05:52:25.603Z,29.97
2022-11-30T05:54:52.702Z,26.67
2022-11-30T05:57:21.112Z,27.00
2022-11-30T05:59:48.220Z,25.10
2022-11-30T06:02:15.463Z,26.97
2022-11-30T06:04:42.599Z,25.83
2022-11-30T06:07:09.702Z,25.60
2022-11-30T06:09:36.772Z,23.13
2022-11-30T06:12:03.966Z,24.53
2022-11-30T06:14:32.420Z,23.53
2022-11-30T06:16:59.515Z,23.47
2022-11-30T06:19:26.593Z,26.70
2022-11-30T06:21:53.698Z,20.43
2022-11-30T06:24:20.794Z,24.60
2022-11-30T06:26:47.900Z,23.27
2022-11-30T06:29:14.969Z,23.90
2022-11-30T06:31:43.526Z,25.80
2022-11-30T06:34:10.603Z,23.10
2022-11-30T06:36:37.728Z,25.00
2022-11-30T06:39:04.989Z,23.77
2022-11-30T06:41:32.132Z,23.83
2022-11-30T06:43:59.222Z,24.37
2022-11-30T06:46:26.362Z,24.10
2022-11-30T06:48:54.791Z,25.23
2022-11-30T06:51:21.909Z,24.83
2022-11-30T06:53:49.030Z,24.47
2022-11-30T06:56:16.112Z,25.40
2022-11-30T06:58:43.231Z,24.37
2022-11-30T07:01:11.879Z,26.30
2022-11-30T07:03:39.356Z,25.03
2022-11-30T07:06:09.018Z,23.03
2022-11-30T07:08:36.216Z,22.90
2022-11-30T07:11:03.369Z,25.40
2022-11-30T07:13:30.683Z,22.90
2022-11-30T07:15:57.824Z,22.90
2022-11-30T07:18:30.313Z,24.10
2022-11-30T07:20:59.556Z,23.90
2022-11-30T07:23:28.066Z,24.20
2022-11-30T07:25:59.707Z,26.17
2022-11-30T07:28:26.921Z,23.80
2022-11-30T07:30:54.085Z,24.47
2022-11-30T07:33:21.192Z,23.70
2022-11-30T07:35:48.305Z,25.10
2022-11-30T07:38:15.401Z,21.73
2022-11-30T07:40:43.835Z,21.97
2022-11-30T07:43:10.904Z,22.67
2022-11-30T07:45:38.054Z,22.43
2022-11-30T07:48:05.203Z,24.10
2022-11-30T07:50:32.417Z,23.70
2022-11-30T07:52:59.494Z,25.93
2022-11-30T07:55:26.613Z,21.57
2022-11-30T07:57:55.077Z,21.33
2022-11-30T08:00:22.197Z,22.67
2022-11-30T08:02:50.524Z,22.03
2022-11-30T08:05:17.938Z,22.83
2022-11-30T08:07:45.138Z,23.70
2022-11-30T08:10:12.629Z,23.90
2022-11-30T08:12:39.723Z,23.83
2022-11-30T08:15:19.771Z,25.53
2022-11-30T08:17:48.034Z,24.20
2022-11-30T08:20:15.196Z,25.73
2022-11-30T08:22:42.345Z,24.73
2022-11-30T08:25:09.838Z,24.50
2022-11-30T08:27:36.943Z,23.90
2022-11-30T08:30:04.244Z,26.10
2022-11-30T08:32:32.957Z,26.17
2022-11-30T08:35:00.089Z,27.87
2022-11-30T08:37:27.206Z,26.50
2022-11-30T08:39:54.299Z,25.00
2022-11-30T08:42:21.423Z,26.50
2022-11-30T08:44:48.480Z,26.80
2022-11-30T08:47:15.769Z,27.10
2022-11-30T08:49:44.263Z,27.13
2022-11-30T08:52:19.049Z,26.40
2022-11-30T08:54:47.442Z,24.70
2022-11-30T08:57:15.499Z,28.83
2022-11-30T08:59:42.626Z,27.60
2022-11-30T09:02:10.218Z,27.80
2022-11-30T09:04:37.361Z,32.77
2022-11-30T09:07:05.967Z,32.03
2022-11-30T09:09:33.074Z,32.70
2022-11-30T09:12:00.210Z,33.33
2022-11-30T09:14:27.345Z,35.23
2022-11-30T09:16:54.596Z,36.73
2022-11-30T09:19:22.154Z,34.37
2022-11-30T09:21:51.933Z,34.17
2022-11-30T09:24:20.978Z,32.93
2022-11-30T09:26:48.273Z,34.17
2022-11-30T09:29:15.502Z,35.10
2022-11-30T09:31:42.613Z,37.10
2022-11-30T09:34:11.363Z,34.53
2022-11-30T09:36:38.475Z,36.90
2022-11-30T09:39:05.607Z,34.37
2022-11-30T09:41:40.713Z,35.20
2022-11-30T09:44:13.789Z,38.40
2022-11-30T09:46:46.872Z,38.83
2022-11-30T09:49:17.909Z,41.60
2022-11-30T09:51:45.806Z,41.00
2022-11-30T09:54:14.393Z,41.90
2022-11-30T09:56:43.464Z,45.83
2022-11-30T09:59:14.399Z,44.40
2022-11-30T10:01:45.720Z,44.10
2022-11-30T10:04:20.215Z,44.93
2022-11-30T10:06:51.768Z,45.10
2022-11-30T10:09:28.748Z,44.73
2022-11-30T10:12:00.854Z,42.53
2022-11-30T10:14:42.431Z,39.10
2022-11-30T10:17:19.004Z,41.63
2022-11-30T10:19:52.269Z,46.73
2022-11-30T10:22:23.162Z,44.77
2022-11-30T10:24:57.574Z,46.03
2022-11-30T10:27:32.969Z,46.23
2022-11-30T10:30:01.473Z,46.47
2022-11-30T10:32:31.759Z,45.30
2022-11-30T10:35:02.477Z,46.37
2022-11-30T10:37:33.229Z,46.97
2022-11-30T10:40:02.152Z,44.97
2022-11-30T10:42:32.909Z,44.13
2022-11-30T10:45:01.136Z,44.43
2022-11-30T10:47:30.159Z,43.30
2022-11-30T10:49:57.226Z,41.53
2022-11-30T10:52:27.192Z,42.63
2022-11-30T10:55:00.534Z,40.83
2022-11-30T10:57:31.651Z,39.57
2022-11-30T11:00:00.888Z,38.50
2022-11-30T11:02:35.919Z,41.17
2022-11-30T11:05:10.016Z,38.40
2022-11-30T11:07:44.912Z,37.60
2022-11-30T11:10:13.924Z,35.80
2022-11-30T11:12:46.944Z,37.43
2022-11-30T11:15:18.376Z,33.00
2022-11-30T11:17:45.615Z,37.07
2022-11-30T11:20:27.959Z,32.90
2022-11-30T11:22:55.160Z,30.87
2022-11-30T11:25:22.980Z,30.83
2022-11-30T11:27:53.707Z,31.40
2022-11-30T11:30:28.916Z,29.80
2022-11-30T11:32:59.488Z,26.93
2022-11-30T11:35:34.525Z,28.33
2022-11-30T11:38:01.645Z,28.97
2022-11-30T11:40:28.769Z,29.30
2022-11-30T11:42:57.445Z,30.17
2022-11-30T11:45:26.097Z,30.07
2022-11-30T11:47:58.706Z,29.90
2022-11-30T11:50:58.270Z,29.40
2022-11-30T11:53:16.257Z,28.13
2022-11-30T11:55:43.733Z,28.67
2022-11-30T11:58:17.660Z,28.67
2022-11-30T12:00:44.889Z,27.63
2022-11-30T12:03:15.191Z,29.37
2022-11-30T12:05:44.624Z,28.63
2022-11-30T12:08:16.235Z,28.43
2022-11-30T12:10:53.278Z,27.80
2022-11-30T12:13:22.661Z,28.77
2022-11-30T12:15:54.147Z,30.00
2022-11-30T12:18:24.455Z,27.67
2022-11-30T12:20:54.948Z,27.60
2022-11-30T12:23:27.879Z,27.47
2022-11-30T12:25:57.839Z,28.87
2022-11-30T12:28:30.055Z,29.60
2022-11-30T12:31:05.875Z,30.10
2022-11-30T12:33:38.762Z,26.17
2022-11-30T12:36:11.633Z,28.07
2022-11-30T12:38:42.132Z,29.07
2022-11-30T12:41:19.669Z,27.13
2022-11-30T12:43:52.311Z,28.30
2022-11-30T12:46:22.818Z,27.00
2022-11-30T12:48:53.670Z,26.90
2022-11-30T12:51:26.387Z,30.33
2022-11-30T12:53:59.673Z,29.50
2022-11-30T12:56:31.313Z,29.60
2022-11-30T12:59:05.731Z,30.63
2022-11-30T13:01:39.567Z,26.83
2022-11-30T13:04:10.084Z,31.10
2022-11-30T13:06:40.385Z,29.33
2022-11-30T13:09:14.998Z,29.10
2022-11-30T13:11:43.996Z,26.50
2022-11-30T13:14:13.587Z,28.37
2022-11-30T13:16:41.626Z,27.93
2022-11-30T13:19:16.011Z,28.00
2022-11-30T13:21:48.277Z,28.90
2022-11-30T13:24:20.862Z,27.00
2022-11-30T13:26:53.095Z,29.17
2022-11-30T13:29:27.487Z,29.10
2022-11-30T13:31:57.358Z,30.73
2022-11-30T13:34:26.075Z,30.20
2022-11-30T13:37:00.900Z,28.07
2022-11-30T13:39:28.617Z,25.93
2022-11-30T13:42:16.796Z,28.63
2022-11-30T13:44:45.439Z,29.33
2022-11-30T13:47:17.665Z,30.23
2022-11-30T13:49:45.035Z,30.47
2022-11-30T13:52:22.609Z,30.17
2022-11-30T13:54:51.545Z,29.83
2022-11-30T13:57:39.449Z,30.03
2022-11-30T14:00:21.477Z,27.57
2022-11-30T14:02:53.317Z,27.00
2022-11-30T14:05:35.310Z,29.83
2022-11-30T14:08:16.088Z,29.70
2022-11-30T14:10:43.908Z,30.10
2022-11-30T14:13:25.893Z,30.27
2022-11-30T14:15:56.982Z,29.47
2022-11-30T14:18:30.911Z,27.83
2022-11-30T14:21:00.318Z,30.97
2022-11-30T14:23:30.056Z,27.70
2022-11-30T14:25:58.170Z,28.23
2022-11-30T14:28:26.345Z,28.53
2022-11-30T14:30:55.525Z,32.67
2022-11-30T14:33:25.790Z,26.77
2022-11-30T14:35:55.422Z,28.00
2022-11-30T14:38:25.176Z,28.23
2022-11-30T14:40:53.145Z,26.97
2022-11-30T14:43:20.789Z,30.03
2022-11-30T14:46:00.268Z,29.37
2022-11-30T14:48:31.829Z,25.47
2022-11-30T14:51:01.908Z,26.67
2022-11-30T14:53:33.453Z,27.43
2022-11-30T14:56:02.476Z,27.30
2022-11-30T14:58:32.250Z,29.27
2022-11-30T15:00:59.775Z,25.57
2022-11-30T15:03:28.231Z,28.50
2022-11-30T15:05:56.694Z,27.57
2022-11-30T15:08:26.256Z,26.33
2022-11-30T15:10:54.151Z,27.53
2022-11-30T15:13:21.273Z,26.50
2022-11-30T15:15:52.742Z,26.90
2022-11-30T15:18:20.944Z,27.93
2022-11-30T15:20:50.685Z,25.27
2022-11-30T15:23:17.997Z,25.60
2022-11-30T15:25:48.060Z,25.97
2022-11-30T15:28:18.388Z,28.23
2022-11-30T15:30:47.124Z,30.87
2022-11-30T15:33:17.688Z,24.77
2022-11-30T15:36:13.626Z,25.90
2022-11-30T15:38:33.997Z,27.57
2022-11-30T15:41:03.659Z,26.87
2022-11-30T15:43:33.465Z,25.37
2022-11-30T15:46:00.658Z,25.67
2022-11-30T15:48:29.151Z,25.63
2022-11-30T15:50:56.293Z,26.77
2022-11-30T15:53:25.058Z,25.37
2022-11-30T15:55:52.741Z,28.73
2022-11-30T15:58:26.395Z,27.57
2022-11-30T16:01:04.229Z,27.37
2022-11-30T16:03:31.562Z,24.50
2022-11-30T16:05:59.337Z,28.30
2022-11-30T16:08:26.784Z,29.30
2022-11-30T16:10:53.904Z,28.90
2022-11-30T16:13:21.887Z,26.77
2022-11-30T16:15:51.200Z,25.43
2022-11-30T16:18:19.480Z,28.63
2022-11-30T16:20:48.013Z,26.83
2022-11-30T16:23:15.716Z,27.97
2022-11-30T16:25:43.518Z,29.60
2022-11-30T16:28:10.646Z,29.90
2022-11-30T16:30:38.130Z,26.90
2022-11-30T16:33:06.564Z,27.63
2022-11-30T16:35:35.937Z,29.90
2022-11-30T16:38:03.055Z,30.77
2022-11-30T16:40:35.318Z,31.07
2022-11-30T16:43:05.446Z,29.87
2022-11-30T16:45:34.979Z,31.40
2022-11-30T16:48:02.234Z,28.53
2022-11-30T16:50:30.777Z,29.13
2022-11-30T16:52:57.847Z,26.73
2022-11-30T16:55:25.831Z,26.57
2022-11-30T16:57:52.925Z,25.83
2022-11-30T17:00:20.225Z,28.10
2022-11-30T17:02:50.435Z,27.70
2022-11-30T17:05:17.568Z,26.87
2022-11-30T17:07:46.057Z,27.50
2022-11-30T17:10:13.347Z,27.83
2022-11-30T17:12:40.444Z,26.23
2022-11-30T17:15:08.141Z,25.50
2022-11-30T17:17:35.250Z,27.67
2022-11-30T17:20:02.331Z,26.30
2022-11-30T17:22:29.446Z,26.90
2022-11-30T17:24:57.934Z,29.13
2022-11-30T17:27:25.034Z,27.53
2022-11-30T17:29:52.132Z,27.20
2022-11-30T17:32:19.188Z,28.90
2022-11-30T17:34:46.702Z,27.43
2022-11-30T17:37:14.129Z,25.53
2022-11-30T17:39:41.371Z,27.47
2022-11-30T17:42:09.973Z,32.70
2022-11-30T17:44:37.105Z,28.57
2022-11-30T17:47:04.202Z,29.27
2022-11-30T17:49:31.299Z,28.30
2022-11-30T17:51:58.406Z,28.43
2022-11-30T17:54:25.465Z,29.13
2022-11-30T17:56:52.608Z,26.80
2022-11-30T17:59:21.118Z,26.90
2022-11-30T18:01:48.268Z,27.30
2022-11-30T18:04:15.478Z,25.83
2022-11-30T18:06:42.556Z,29.90
2022-11-30T18:09:09.665Z,30.73
2022-11-30T18:11:36.730Z,26.93
2022-11-30T18:14:03.889Z,30.20
2022-11-30T18:16:33.379Z,29.80
2022-11-30T18:19:00.602Z,28.77
2022-11-30T18:21:29.223Z,29.03
2022-11-30T18:23:57.819Z,28.57
2022-11-30T18:26:25.310Z,29.93
2022-11-30T18:28:53.048Z,29.90
2022-11-30T18:31:20.537Z,29.30
2022-11-30T18:33:49.085Z,29.37
2022-11-30T18:36:16.215Z,30.20
2022-11-30T18:38:43.281Z,29.83
2022-11-30T18:41:10.438Z,29.50
2022-11-30T18:43:39.792Z,30.33
2022-11-30T18:46:07.501Z,29.40
2022-11-30T18:48:34.805Z,27.97
2022-11-30T18:51:10.360Z,31.10
2022-11-30T18:53:37.473Z,31.17
2022-11-30T18:56:08.175Z,33.37
2022-11-30T18:58:35.321Z,30.00
2022-11-30T19:01:06.622Z,31.37
2022-11-30T19:03:33.797Z,32.67
2022-11-30T19:06:02.812Z,27.80
2022-11-30T19:08:31.404Z,30.50
2022-11-30T19:11:05.001Z,30.13
2022-11-30T19:13:32.874Z,31.43
2022-11-30T19:16:03.140Z,27.53
2022-11-30T19:18:30.270Z,30.90
2022-11-30T19:20:57.369Z,26.57
2022-11-30T19:23:24.459Z,26.87
2022-11-30T19:25:52.910Z,25.43
2022-11-30T19:28:19.950Z,24.10
2022-11-30T19:30:47.073Z,22.70
2022-11-30T19:33:14.193Z,22.30
2022-11-30T19:35:41.309Z,21.23
2022-11-30T19:38:08.368Z,19.40
2022-11-30T19:40:37.434Z,20.50
2022-11-30T19:43:05.943Z,24.60
2022-11-30T19:45:34.333Z,21.50
2022-11-30T19:48:01.497Z,21.10
2022-11-30T19:50:28.572Z,21.80
2022-11-30T19:52:55.691Z,20.57
2022-11-30T19:55:22.769Z,20.93
2022-11-30T19:57:49.872Z,18.80
2022-11-30T20:00:18.854Z,21.47
2022-11-30T20:02:46.004Z,18.83
2022-11-30T20:05:13.182Z,19.30
2022-11-30T20:07:40.277Z,19.20
2022-11-30T20:10:07.920Z,19.07
2022-11-30T20:12:35.009Z,18.03
2022-11-30T20:15:02.108Z,16.40
2022-11-30T20:17:30.530Z,18.40
2022-11-30T20:19:57.630Z,16.10
2022-11-30T20:22:24.751Z,14.07
2022-11-30T20:24:51.851Z,13.60
2022-11-30T20:27:18.962Z,14.30
2022-11-30T20:29:46.058Z,12.40
2022-11-30T20:32:13.142Z,11.47
2022-11-30T20:34:43.822Z,11.63
2022-11-30T20:37:11.178Z,14.40
2022-11-30T20:39:44.052Z,11.57
2022-11-30T20:42:12.713Z,12.87
2022-11-30T20:44:39.815Z,11.47
2022-11-30T20:47:06.899Z,13.07
2022-11-30T20:49:34.007Z,13.80
2022-11-30T20:52:02.445Z,14.70
2022-11-30T20:54:29.554Z,12.40
2022-11-30T20:56:56.770Z,14.20
2022-11-30T20:59:24.014Z,13.97
2022-11-30T21:01:51.253Z,14.60
2022-11-30T21:04:18.441Z,13.70
2022-11-30T21:06:45.837Z,15.00
2022-11-30T21:09:14.655Z,14.37
2022-11-30T21:11:41.923Z,13.40
2022-11-30T21:14:09.080Z,14.20
2022-11-30T21:16:36.197Z,14.77
2022-11-30T21:19:03.557Z,12.90
2022-11-30T21:21:31.893Z,13.40
2022-11-30T21:23:59.352Z,14.13
2022-11-30T21:26:29.277Z,14.10
2022-11-30T21:28:59.288Z,13.00
2022-11-30T21:31:26.430Z,13.80
2022-11-30T21:33:54.099Z,13.47
2022-11-30T21:36:22.180Z,12.90
2022-11-30T21:38:53.451Z,12.30
2022-11-30T21:41:20.630Z,13.50
2022-11-30T21:43:49.080Z,12.50
2022-11-30T21:46:16.773Z,13.17
2022-11-30T21:48:45.132Z,12.50
2022-11-30T21:51:13.284Z,12.93
2022-11-30T21:53:41.055Z,12.47
2022-11-30T21:56:09.213Z,14.10
2022-11-30T21:58:36.333Z,12.90
2022-11-30T22:01:04.773Z,13.83
2022-11-30T22:03:32.137Z,12.87
2022-11-30T22:05:59.893Z,12.00
2022-11-30T22:08:26.998Z,12.37
2022-11-30T22:10:54.093Z,13.27
2022-11-30T22:13:21.570Z,13.73
2022-11-30T22:15:48.687Z,15.20
2022-11-30T22:18:17.152Z,12.33
2022-11-30T22:20:44.258Z,13.77
2022-11-30T22:23:11.325Z,13.43
2022-11-30T22:25:38.515Z,13.90
2022-11-30T22:28:05.586Z,13.27
2022-11-30T22:30:33.664Z,14.70
2022-11-30T22:33:00.749Z,14.57
2022-11-30T22:35:29.199Z,14.60
2022-11-30T22:37:56.259Z,12.20
2022-11-30T22:40:23.359Z,14.80
2022-11-30T22:42:50.420Z,13.27
2022-11-30T22:45:17.627Z,15.00
2022-11-30T22:47:44.725Z,15.60
2022-11-30T22:50:12.338Z,15.73
2022-11-30T22:53:01.967Z,14.80
2022-11-30T22:55:28.016Z,16.20
2022-11-30T22:57:55.201Z,15.43
2022-11-30T23:00:22.330Z,15.27
2022-11-30T23:02:49.483Z,14.73
2022-11-30T23:05:16.707Z,14.80
2022-11-30T23:07:45.181Z,15.03
2022-11-30T23:10:12.673Z,14.60
2022-11-30T23:12:58.605Z,14.40
2022-11-30T23:15:26.886Z,15.53
2022-11-30T23:17:53.993Z,14.50
2022-11-30T23:20:21.104Z,15.80
2022-11-30T23:22:49.580Z,15.67
2022-11-30T23:25:16.673Z,14.93
2022-11-30T23:27:43.762Z,16.57
2022-11-30T23:30:11.019Z,16.13
2022-11-30T23:32:38.214Z,16.03
2022-11-30T23:35:05.533Z,18.13
2022-11-30T23:37:32.651Z,15.37
2022-11-30T23:40:01.081Z,15.17
2022-11-30T23:42:28.155Z,16.80
2022-11-30T23:44:55.263Z,20.30
2022-11-30T23:47:22.386Z,18.30
2022-11-30T23:49:49.800Z,20.27
2022-11-30T23:52:17.071Z,19.13
2022-11-30T23:54:44.182Z,18.73
2022-11-30T23:57:12.603Z,19.30
2022-11-30T23:59:39.700Z,21.17
